Terminal Aerodrome Forecast
Issued by NWS Salt Lake City, UT

Home | Current Version | Previous Version | Text Only | Print | Product List | Glossary On
Versions: 1 2 3 4 5 6 7 8 9 10 11 12 13 14 15 16
000
FTUS45 KSLC 201721
TAFCDC
TAF
KCDC 201721Z 2018/2118 34005KT 1/4SM SN FZFG BKN003 BKN020
     FM202000 35011KT 2SM -SN BKN020 OVC040
     FM202300 35010KT P6SM VCSH SCT020 BKN040=

USA.gov is the U.S. government's official web portal to all federal, state and local government web resources and services.